createdAt,value
2022-11-13T00:02:54.067Z,41.30
2022-11-13T00:05:41.791Z,42.55
2022-11-13T00:08:29.043Z,44.25
2022-11-13T00:11:19.836Z,41.38
2022-11-13T00:14:07.196Z,41.72
2022-11-13T00:16:54.467Z,42.92
2022-11-13T00:19:43.138Z,37.42
2022-11-13T00:22:30.671Z,41.55
2022-11-13T00:25:17.807Z,40.15
2022-11-13T00:28:05.383Z,45.80
2022-11-13T00:30:52.351Z,44.15
2022-11-13T00:34:13.958Z,37.88
2022-11-13T00:36:48.539Z,42.67
2022-11-13T00:39:36.078Z,43.10
2022-11-13T00:42:23.136Z,41.97
2022-11-13T00:45:11.201Z,40.03
2022-11-13T00:47:58.518Z,43.05
2022-11-13T00:50:46.973Z,45.08
2022-11-13T00:53:35.278Z,47.47
2022-11-13T00:56:22.761Z,37.80
2022-11-13T00:59:10.264Z,39.40
2022-11-13T01:01:57.474Z,41.47
2022-11-13T01:04:45.027Z,43.17
2022-11-13T01:07:32.693Z,44.08
2022-11-13T01:10:21.291Z,41.22
2022-11-13T01:13:09.151Z,42.50
2022-11-13T01:15:56.080Z,39.42
2022-11-13T01:18:44.776Z,39.58
2022-11-13T01:26:27.694Z,48.22
2022-11-13T01:29:14.804Z,38.50
2022-11-13T01:32:02.387Z,41.28
2022-11-13T01:34:49.582Z,40.70
2022-11-13T01:37:37.069Z,44.28
2022-11-13T01:40:23.895Z,43.17
2022-11-13T01:43:26.158Z,42.58
2022-11-13T01:46:27.918Z,43.25
2022-11-13T01:49:28.372Z,44.60
2022-11-13T01:52:21.213Z,42.83
2022-11-13T01:55:17.103Z,40.60
2022-11-13T01:58:09.755Z,42.45
2022-11-13T02:00:58.744Z,45.97
2022-11-13T02:03:45.944Z,41.28
2022-11-13T02:06:41.471Z,42.15
2022-11-13T02:09:34.707Z,45.13
2022-11-13T02:12:29.529Z,43.40
2022-11-13T02:15:19.333Z,44.10
2022-11-13T02:18:09.150Z,45.28
2022-11-13T02:21:11.125Z,43.03
2022-11-13T02:24:15.029Z,42.55
2022-11-13T02:27:06.986Z,43.28
2022-11-13T02:29:54.737Z,43.67
2022-11-13T02:32:45.248Z,40.65
2022-11-13T02:35:38.597Z,44.65
2022-11-13T02:38:26.573Z,42.97
2022-11-13T02:41:15.593Z,46.50
2022-11-13T02:44:02.533Z,42.97
2022-11-13T02:46:49.894Z,42.83
2022-11-13T02:49:37.055Z,41.97
2022-11-13T02:52:24.800Z,42.38
2022-11-13T02:55:12.127Z,41.90
2022-11-13T02:58:01.064Z,38.40
2022-11-13T03:00:48.484Z,38.40
2022-11-13T03:06:43.190Z,37.30
2022-11-13T03:09:30.659Z,38.80
2022-11-13T03:12:17.700Z,38.60
2022-11-13T03:15:08.964Z,40.67
2022-11-13T03:17:56.417Z,39.38
2022-11-13T03:20:45.533Z,40.20
2022-11-13T03:23:32.533Z,37.65
2022-11-13T03:26:20.035Z,38.70
2022-11-13T03:29:06.912Z,39.33
2022-11-13T03:31:55.669Z,37.95
2022-11-13T03:34:43.547Z,39.38
2022-11-13T03:37:31.397Z,40.92
2022-11-13T03:40:19.019Z,39.67
2022-11-13T03:43:06.010Z,37.97
2022-11-13T03:45:53.315Z,36.70
2022-11-13T03:48:42.443Z,35.55
2022-11-13T03:51:29.695Z,39.00
2022-11-13T03:54:17.153Z,35.53
2022-11-13T03:57:04.501Z,36.92
2022-11-13T04:04:43.194Z,33.75
2022-11-13T04:07:30.567Z,33.50
2022-11-13T04:10:17.894Z,36.05
2022-11-13T04:13:05.337Z,34.20
2022-11-13T04:15:52.121Z,36.95
2022-11-13T04:18:39.721Z,37.60
2022-11-13T04:21:28.534Z,39.53
2022-11-13T04:24:15.916Z,36.13
2022-11-13T04:27:02.807Z,35.83
2022-11-13T04:29:50.316Z,36.33
2022-11-13T04:32:37.305Z,37.60
2022-11-13T04:35:24.595Z,37.10
2022-11-13T04:38:13.453Z,36.58
2022-11-13T04:41:18.472Z,37.15
2022-11-13T04:44:05.946Z,41.83
2022-11-13T04:46:53.122Z,31.95
2022-11-13T04:49:40.100Z,41.13
2022-11-13T04:52:28.622Z,38.67
2022-11-13T04:55:16.848Z,33.53
2022-11-13T04:58:04.124Z,38.97
2022-11-13T05:00:51.380Z,37.75
2022-11-13T05:03:39.270Z,33.72
2022-11-13T05:06:26.407Z,34.47
2022-11-13T05:09:14.150Z,33.17
2022-11-13T05:12:03.041Z,31.98
2022-11-13T05:14:50.674Z,32.92
2022-11-13T05:17:38.019Z,36.10
2022-11-13T05:20:25.446Z,35.10
2022-11-13T05:23:12.899Z,34.03
2022-11-13T05:26:04.849Z,36.10
2022-11-13T05:28:53.893Z,34.25
2022-11-13T05:31:41.606Z,32.75
2022-11-13T05:34:28.784Z,34.78
2022-11-13T05:37:16.700Z,36.83
2022-11-13T05:40:03.635Z,38.92
2022-11-13T05:42:51.072Z,41.67
2022-11-13T05:45:39.267Z,35.20
2022-11-13T05:48:27.081Z,38.13
2022-11-13T05:51:19.087Z,36.38
2022-11-13T05:54:07.226Z,36.15
2022-11-13T05:56:54.249Z,35.72
2022-11-13T05:59:41.741Z,33.47
2022-11-13T06:02:30.412Z,35.60
2022-11-13T06:05:17.873Z,38.30
2022-11-13T06:08:04.896Z,40.45
2022-11-13T06:10:52.357Z,37.08
2022-11-13T06:13:40.363Z,37.15
2022-11-13T06:21:22.117Z,35.30
2022-11-13T06:24:13.126Z,35.45
2022-11-13T06:27:00.251Z,37.75
2022-11-13T06:29:47.951Z,36.90
2022-11-13T06:32:34.751Z,29.88
2022-11-13T06:35:22.303Z,31.67
2022-11-13T06:38:10.726Z,30.85
2022-11-13T06:40:58.572Z,28.17
2022-11-13T06:43:47.464Z,31.17
2022-11-13T06:46:34.869Z,27.88
2022-11-13T06:49:21.883Z,29.65
2022-11-13T06:52:09.362Z,28.45
2022-11-13T06:54:57.644Z,25.70
2022-11-13T06:57:45.312Z,29.45
2022-11-13T07:00:36.682Z,24.92
2022-11-13T07:03:28.023Z,26.35
2022-11-13T07:06:18.335Z,25.90
2022-11-13T07:09:05.530Z,28.50
2022-11-13T07:11:54.008Z,30.67
2022-11-13T07:19:32.461Z,32.67
2022-11-13T07:22:19.951Z,27.83
2022-11-13T07:25:08.266Z,27.00
2022-11-13T07:27:57.393Z,26.42
2022-11-13T07:30:44.852Z,26.08
2022-11-13T07:33:32.433Z,26.02
2022-11-13T07:36:20.047Z,28.73
2022-11-13T07:39:07.580Z,27.75
2022-11-13T07:41:54.397Z,26.45
2022-11-13T07:44:58.627Z,27.17
2022-11-13T07:47:45.719Z,26.58
2022-11-13T07:50:38.949Z,24.48
2022-11-13T07:53:26.249Z,22.23
2022-11-13T07:56:16.578Z,20.85
2022-11-13T07:59:06.428Z,18.38
2022-11-13T08:01:55.012Z,20.08
2022-11-13T08:04:42.131Z,20.88
2022-11-13T08:07:29.814Z,22.70
2022-11-13T08:10:18.508Z,17.40
2022-11-13T08:13:10.755Z,16.33
2022-11-13T08:16:01.249Z,14.20
2022-11-13T08:18:49.921Z,17.90
2022-11-13T08:21:37.235Z,14.25
2022-11-13T08:24:24.529Z,15.73
2022-11-13T08:27:11.351Z,14.45
2022-11-13T08:29:58.808Z,16.33
2022-11-13T08:32:46.016Z,14.52
2022-11-13T08:35:34.869Z,13.23
2022-11-13T08:38:22.342Z,16.55
2022-11-13T08:41:10.186Z,13.38
2022-11-13T08:48:48.587Z,14.95
2022-11-13T08:51:36.762Z,15.93
2022-11-13T08:54:25.050Z,16.95
2022-11-13T08:57:12.106Z,15.70
2022-11-13T08:59:59.447Z,17.33
2022-11-13T09:02:46.743Z,17.15
2022-11-13T09:05:33.949Z,16.58
2022-11-13T09:08:22.419Z,17.80
2022-11-13T09:11:12.792Z,15.20
2022-11-13T09:14:00.097Z,17.50
2022-11-13T09:16:47.510Z,14.18
2022-11-13T09:19:35.266Z,16.98
2022-11-13T09:22:23.071Z,15.65
2022-11-13T09:25:12.340Z,16.63
2022-11-13T09:28:02.646Z,18.13
2022-11-13T09:30:49.668Z,15.43
2022-11-13T09:33:37.689Z,15.80
2022-11-13T09:36:24.644Z,19.38
2022-11-13T09:39:12.265Z,15.38
2022-11-13T09:46:56.455Z,18.33
2022-11-13T09:54:37.147Z,19.98
2022-11-13T09:57:34.504Z,20.48
2022-11-13T10:00:23.586Z,18.95
2022-11-13T10:03:54.667Z,17.30
2022-11-13T10:07:01.051Z,17.85
2022-11-13T10:14:47.644Z,18.38
2022-11-13T10:17:40.580Z,19.55
2022-11-13T10:20:35.920Z,15.02
2022-11-13T10:23:30.842Z,15.27
2022-11-13T10:26:21.509Z,22.83
2022-11-13T10:29:14.079Z,16.63
2022-11-13T10:32:17.488Z,15.55
2022-11-13T10:35:29.343Z,20.95
2022-11-13T10:38:31.517Z,15.48
2022-11-13T10:41:21.613Z,14.55
2022-11-13T10:48:59.250Z,15.98
2022-11-13T10:51:55.353Z,17.17
2022-11-13T10:54:43.668Z,15.15
2022-11-13T10:57:34.711Z,14.73
2022-11-13T11:00:34.272Z,15.02
2022-11-13T11:03:24.301Z,17.83
2022-11-13T11:06:11.880Z,15.93
2022-11-13T11:09:09.281Z,16.85
2022-11-13T11:12:19.120Z,18.20
2022-11-13T11:15:22.271Z,24.20
2022-11-13T11:18:25.523Z,18.15
2022-11-13T11:21:20.594Z,17.38
2022-11-13T11:24:15.482Z,15.57
2022-11-13T11:27:14.468Z,18.23
2022-11-13T11:30:06.863Z,16.50
2022-11-13T11:33:06.187Z,17.23
2022-11-13T11:36:03.519Z,16.95
2022-11-13T11:39:01.409Z,18.63
2022-11-13T11:42:01.379Z,16.50
2022-11-13T11:45:11.176Z,16.77
2022-11-13T11:48:01.891Z,15.65
2022-11-13T11:51:02.468Z,19.10
2022-11-13T11:54:20.701Z,17.15
2022-11-13T11:57:37.458Z,19.73
2022-11-13T12:00:29.020Z,20.67
2022-11-13T12:03:59.820Z,19.17
2022-11-13T12:07:01.596Z,20.05
2022-11-13T12:10:04.102Z,17.48
2022-11-13T12:13:10.471Z,18.92
2022-11-13T12:16:09.662Z,20.73
2022-11-13T12:19:05.570Z,24.33
2022-11-13T12:22:07.166Z,22.50
2022-11-13T12:25:18.917Z,21.55
2022-11-13T12:28:19.697Z,20.55
2022-11-13T12:31:21.868Z,20.25
2022-11-13T12:34:25.907Z,18.17
2022-11-13T12:37:17.578Z,20.65
2022-11-13T12:40:17.073Z,20.42
2022-11-13T12:43:39.733Z,18.73
2022-11-13T12:46:38.785Z,21.60
2022-11-13T12:49:33.614Z,20.85
2022-11-13T12:52:24.555Z,20.05
2022-11-13T12:55:29.897Z,19.65
2022-11-13T12:58:26.086Z,20.90
2022-11-13T13:01:21.456Z,18.08
2022-11-13T13:04:44.155Z,17.27
2022-11-13T13:12:39.984Z,29.17
2022-11-13T13:15:36.333Z,29.13
2022-11-13T13:18:30.978Z,22.67
2022-11-13T13:21:22.075Z,20.83
2022-11-13T13:29:17.723Z,87.70
2022-11-13T13:32:20.604Z,48.28
2022-11-13T13:36:46.689Z,32.58
2022-11-13T13:39:52.506Z,23.10
2022-11-13T13:43:00.883Z,22.15
2022-11-13T13:46:03.095Z,22.35
2022-11-13T13:48:56.192Z,28.77
2022-11-13T13:53:22.689Z,22.88
2022-11-13T14:35:03.135Z,26.88
2022-11-13T14:37:53.066Z,23.90
2022-11-13T14:40:40.770Z,23.23
2022-11-13T14:43:32.120Z,24.27
2022-11-13T14:46:30.933Z,23.52
2022-11-13T14:49:30.111Z,21.90
2022-11-13T14:52:29.622Z,24.33
2022-11-13T14:55:26.227Z,23.65
2022-11-13T14:58:15.388Z,23.92
2022-11-13T15:01:17.014Z,27.25
2022-11-13T15:04:05.204Z,28.83
2022-11-13T15:06:55.853Z,30.02
2022-11-13T15:09:44.824Z,31.35
2022-11-13T15:12:31.985Z,29.83
2022-11-13T15:15:22.052Z,29.45
2022-11-13T15:18:17.392Z,28.20
2022-11-13T15:21:05.338Z,30.73
2022-11-13T15:23:52.257Z,30.42
2022-11-13T15:26:41.987Z,29.02
2022-11-13T15:29:29.413Z,29.88
2022-11-13T15:32:17.530Z,32.40
2022-11-13T15:35:05.167Z,33.22
2022-11-13T15:37:52.807Z,34.97
2022-11-13T15:40:40.517Z,39.17
2022-11-13T15:43:29.845Z,37.55
2022-11-13T15:46:20.501Z,38.08
2022-11-13T15:49:07.921Z,41.60
2022-11-13T15:51:55.099Z,38.50
2022-11-13T15:54:42.747Z,35.80
2022-11-13T15:57:32.000Z,39.10
2022-11-13T16:00:25.072Z,40.45
2022-11-13T16:03:12.743Z,33.55
2022-11-13T16:06:01.113Z,32.65
2022-11-13T16:08:49.234Z,34.67
2022-11-13T16:11:37.875Z,30.88
2022-11-13T16:14:25.553Z,32.92
2022-11-13T16:17:20.103Z,31.95
2022-11-13T16:25:33.512Z,44.25
2022-11-13T16:28:20.895Z,40.92
2022-11-13T16:31:08.645Z,34.50
2022-11-13T16:33:57.378Z,34.15
2022-11-13T16:36:44.895Z,28.58
2022-11-13T16:39:32.411Z,25.35
2022-11-13T16:42:20.121Z,20.88
2022-11-13T16:45:09.051Z,24.25
2022-11-13T16:47:57.293Z,24.65
2022-11-13T16:50:45.903Z,25.88
2022-11-13T16:53:33.222Z,23.80
2022-11-13T16:56:28.100Z,26.17
2022-11-13T16:59:15.842Z,28.20
2022-11-13T17:02:03.220Z,29.02
2022-11-13T17:04:50.701Z,27.35
2022-11-13T17:07:39.107Z,28.58
2022-11-13T17:10:31.736Z,27.80
2022-11-13T17:13:19.897Z,27.33
2022-11-13T17:16:07.855Z,37.30
2022-11-13T17:18:55.904Z,38.97
2022-11-13T17:21:44.555Z,42.38
2022-11-13T17:24:33.135Z,46.53
2022-11-13T17:27:20.367Z,40.67
2022-11-13T17:30:10.095Z,41.38
2022-11-13T17:32:57.712Z,35.83
2022-11-13T17:35:46.455Z,34.95
2022-11-13T17:38:34.323Z,30.60
2022-11-13T17:41:23.184Z,30.17
2022-11-13T17:44:10.936Z,30.13
2022-11-13T17:47:04.910Z,37.35
2022-11-13T17:49:52.965Z,32.92
2022-11-13T17:52:39.963Z,35.67
2022-11-13T17:55:27.692Z,26.27
2022-11-13T17:58:16.049Z,32.70
2022-11-13T18:01:09.718Z,29.80
2022-11-13T18:03:57.633Z,25.80
2022-11-13T18:11:36.353Z,38.67
2022-11-13T18:14:24.947Z,39.10
2022-11-13T18:17:12.344Z,36.42
2022-11-13T18:20:02.021Z,32.00
2022-11-13T18:22:50.325Z,32.35
2022-11-13T18:25:39.884Z,29.75
2022-11-13T18:28:27.400Z,28.75
2022-11-13T18:31:19.874Z,30.48
2022-11-13T18:34:09.995Z,26.90
2022-11-13T18:36:58.435Z,29.50
2022-11-13T18:39:45.590Z,29.70
2022-11-13T18:42:32.766Z,26.20
2022-11-13T18:45:20.180Z,27.75
2022-11-13T18:48:08.915Z,28.02
2022-11-13T18:50:57.218Z,29.73
2022-11-13T18:53:46.088Z,30.13
2022-11-13T18:56:34.296Z,27.52
2022-11-13T18:59:21.293Z,27.88
2022-11-13T19:02:10.274Z,28.60
2022-11-13T19:04:58.838Z,27.65
2022-11-13T19:07:46.182Z,28.73
2022-11-13T19:10:35.300Z,33.92
2022-11-13T19:13:22.967Z,27.42
2022-11-13T19:16:13.002Z,26.20
2022-11-13T19:19:03.305Z,31.67
2022-11-13T19:21:52.300Z,32.67
2022-11-13T19:24:39.757Z,30.38
2022-11-13T19:27:27.278Z,29.92
2022-11-13T19:30:14.866Z,30.38
2022-11-13T19:33:01.719Z,25.33
2022-11-13T19:35:49.631Z,24.30
2022-11-13T19:38:39.298Z,25.63
2022-11-13T19:41:29.650Z,26.17
2022-11-13T19:44:16.377Z,38.35
2022-11-13T19:47:03.945Z,38.03
2022-11-13T19:54:43.095Z,43.50
2022-11-13T19:59:14.124Z,51.15
2022-11-13T20:02:01.847Z,31.17
2022-11-13T20:04:49.157Z,25.95
2022-11-13T20:07:37.285Z,24.80
2022-11-13T20:15:17.004Z,34.17
2022-11-13T20:18:04.976Z,30.15
2022-11-13T20:20:54.845Z,25.60
2022-11-13T20:23:42.687Z,23.17
2022-11-13T20:26:30.037Z,25.33
2022-11-13T20:29:17.225Z,23.40
2022-11-13T20:32:06.276Z,22.48
2022-11-13T20:34:53.286Z,22.80
2022-11-13T20:37:41.100Z,27.20
2022-11-13T20:45:22.761Z,24.15
2022-11-13T20:48:11.792Z,29.30
2022-11-13T20:51:07.554Z,24.48
2022-11-13T20:53:55.853Z,26.05
2022-11-13T20:56:43.135Z,22.88
2022-11-13T20:59:30.197Z,24.30
2022-11-13T21:02:17.729Z,20.92
2022-11-13T21:05:07.532Z,22.23
2022-11-13T21:07:55.104Z,20.65
2022-11-13T21:10:42.008Z,21.48
2022-11-13T21:13:29.956Z,21.88
2022-11-13T21:16:18.620Z,20.08
2022-11-13T21:19:06.181Z,19.38
2022-11-13T21:26:44.929Z,21.65
2022-11-13T21:34:22.745Z,19.77
2022-11-13T21:37:11.036Z,18.83
2022-11-13T21:39:58.428Z,20.58
2022-11-13T21:42:46.522Z,21.90
2022-11-13T21:45:34.808Z,22.90
2022-11-13T21:48:22.087Z,22.75
2022-11-13T21:51:10.524Z,22.45
2022-11-13T21:58:50.209Z,22.25
2022-11-13T22:01:38.838Z,16.65
2022-11-13T22:04:27.855Z,18.48
2022-11-13T22:07:15.854Z,18.17
2022-11-13T22:10:08.169Z,21.55
2022-11-13T22:12:55.763Z,19.52
2022-11-13T22:15:44.662Z,19.75
2022-11-13T22:18:31.932Z,20.05
2022-11-13T22:21:19.615Z,19.92
2022-11-13T22:24:07.403Z,19.17
2022-11-13T22:26:54.578Z,18.40
2022-11-13T22:29:41.655Z,16.83
2022-11-13T22:32:31.465Z,17.52
2022-11-13T22:35:18.724Z,17.48
2022-11-13T22:38:06.270Z,17.52
2022-11-13T22:40:53.304Z,19.55
2022-11-13T22:43:42.792Z,17.30
2022-11-13T22:51:24.830Z,17.55
2022-11-13T22:55:53.328Z,21.35
2022-11-13T22:58:40.945Z,19.40
2022-11-13T23:01:30.306Z,21.38
2022-11-13T23:04:18.025Z,25.60
2022-11-13T23:07:06.723Z,22.17
2022-11-13T23:09:54.483Z,22.42
2022-11-13T23:12:41.738Z,23.17
2022-11-13T23:15:28.828Z,21.45
2022-11-13T23:18:16.091Z,22.65
2022-11-13T23:21:03.343Z,22.77
2022-11-13T23:23:52.063Z,22.15
2022-11-13T23:26:39.541Z,22.65
2022-11-13T23:29:26.474Z,22.38
2022-11-13T23:32:13.942Z,22.77
2022-11-13T23:35:01.306Z,22.73
2022-11-13T23:37:48.815Z,27.27
2022-11-13T23:45:29.411Z,23.70
2022-11-13T23:48:16.306Z,22.60
2022-11-13T23:51:04.334Z,24.42
2022-11-13T23:53:51.360Z,24.17
2022-11-13T23:56:39.200Z,24.48
